sensor_id;sensor_type;location;lat;lon;timestamp;P1;durP1;ratioP1;P2;durP2;ratioP2
52438;SDS011;38359;53.150;6.504;2022-11-11T00:04:05;25.42;;;9.50;;
52438;SDS011;38359;53.150;6.504;2022-11-11T00:14:31;22.48;;;9.05;;
52438;SDS011;38359;53.150;6.504;2022-11-11T00:24:57;31.10;;;9.55;;
52438;SDS011;38359;53.150;6.504;2022-11-11T00:35:31;28.25;;;9.48;;
52438;SDS011;38359;53.150;6.504;2022-11-11T00:57:09;25.90;;;9.43;;
52438;SDS011;38359;53.150;6.504;2022-11-11T01:07:35;30.67;;;10.13;;
52438;SDS011;38359;53.150;6.504;2022-11-11T01:18:01;31.30;;;9.63;;
52438;SDS011;38359;53.150;6.504;2022-11-11T01:28:27;19.55;;;9.23;;
52438;SDS011;38359;53.150;6.504;2022-11-11T01:38:55;26.38;;;11.07;;
52438;SDS011;38359;53.150;6.504;2022-11-11T01:49:25;31.88;;;11.85;;
52438;SDS011;38359;53.150;6.504;2022-11-11T02:00:03;25.38;;;11.10;;
52438;SDS011;38359;53.150;6.504;2022-11-11T02:10:35;25.30;;;10.13;;
52438;SDS011;38359;53.150;6.504;2022-11-11T02:21:04;30.52;;;10.77;;
52438;SDS011;38359;53.150;6.504;2022-11-11T02:31:30;29.95;;;11.40;;
52438;SDS011;38359;53.150;6.504;2022-11-11T02:41:56;34.35;;;14.43;;
52438;SDS011;38359;53.150;6.504;2022-11-11T02:52:22;37.40;;;16.23;;
52438;SDS011;38359;53.150;6.504;2022-11-11T03:02:48;33.25;;;17.02;;
52438;SDS011;38359;53.150;6.504;2022-11-11T03:13:14;46.80;;;22.42;;
52438;SDS011;38359;53.150;6.504;2022-11-11T03:23:39;40.17;;;21.65;;
52438;SDS011;38359;53.150;6.504;2022-11-11T03:34:05;48.08;;;24.35;;
52438;SDS011;38359;53.150;6.504;2022-11-11T03:44:43;50.08;;;23.20;;
52438;SDS011;38359;53.150;6.504;2022-11-11T03:55:09;53.67;;;24.85;;
52438;SDS011;38359;53.150;6.504;2022-11-11T04:05:35;41.05;;;23.50;;
52438;SDS011;38359;53.150;6.504;2022-11-11T04:16:19;41.85;;;24.02;;
52438;SDS011;38359;53.150;6.504;2022-11-11T04:26:45;50.33;;;25.17;;
52438;SDS011;38359;53.150;6.504;2022-11-11T04:37:11;43.28;;;24.08;;
52438;SDS011;38359;53.150;6.504;2022-11-11T04:47:37;52.42;;;27.13;;
52438;SDS011;38359;53.150;6.504;2022-11-11T04:58:20;69.95;;;28.63;;
52438;SDS011;38359;53.150;6.504;2022-11-11T05:08:50;51.97;;;29.67;;
52438;SDS011;38359;53.150;6.504;2022-11-11T05:19:25;57.00;;;30.77;;
52438;SDS011;38359;53.150;6.504;2022-11-11T05:30:11;48.20;;;28.83;;
52438;SDS011;38359;53.150;6.504;2022-11-11T05:40:39;54.75;;;29.70;;
52438;SDS011;38359;53.150;6.504;2022-11-11T05:51:05;56.13;;;30.10;;
52438;SDS011;38359;53.150;6.504;2022-11-11T06:01:50;63.03;;;30.30;;
52438;SDS011;38359;53.150;6.504;2022-11-11T06:12:16;48.22;;;27.65;;
52438;SDS011;38359;53.150;6.504;2022-11-11T06:22:42;46.90;;;26.20;;
52438;SDS011;38359;53.150;6.504;2022-11-11T06:33:23;54.45;;;27.60;;
52438;SDS011;38359;53.150;6.504;2022-11-11T06:43:48;55.25;;;29.42;;
52438;SDS011;38359;53.150;6.504;2022-11-11T06:54:14;51.78;;;28.40;;
52438;SDS011;38359;53.150;6.504;2022-11-11T07:04:40;44.58;;;25.55;;
52438;SDS011;38359;53.150;6.504;2022-11-11T07:15:06;54.13;;;30.23;;
52438;SDS011;38359;53.150;6.504;2022-11-11T07:25:33;65.15;;;30.42;;
52438;SDS011;38359;53.150;6.504;2022-11-11T07:35:59;56.80;;;29.58;;
52438;SDS011;38359;53.150;6.504;2022-11-11T07:46:25;57.08;;;29.85;;
52438;SDS011;38359;53.150;6.504;2022-11-11T07:56:51;55.95;;;30.05;;
52438;SDS011;38359;53.150;6.504;2022-11-11T08:07:17;62.33;;;29.25;;
52438;SDS011;38359;53.150;6.504;2022-11-11T08:17:43;49.03;;;27.88;;
52438;SDS011;38359;53.150;6.504;2022-11-11T08:28:09;48.53;;;26.55;;
52438;SDS011;38359;53.150;6.504;2022-11-11T08:38:35;51.17;;;25.58;;
52438;SDS011;38359;53.150;6.504;2022-11-11T08:49:02;48.70;;;26.33;;
52438;SDS011;38359;53.150;6.504;2022-11-11T08:59:28;47.13;;;24.85;;
52438;SDS011;38359;53.150;6.504;2022-11-11T09:09:54;45.70;;;23.63;;
52438;SDS011;38359;53.150;6.504;2022-11-11T09:20:20;48.15;;;25.77;;
52438;SDS011;38359;53.150;6.504;2022-11-11T09:30:47;48.97;;;23.73;;
52438;SDS011;38359;53.150;6.504;2022-11-11T09:41:20;42.60;;;24.05;;
52438;SDS011;38359;53.150;6.504;2022-11-11T09:51:59;40.72;;;22.33;;
52438;SDS011;38359;53.150;6.504;2022-11-11T10:02:49;40.28;;;24.17;;
52438;SDS011;38359;53.150;6.504;2022-11-11T10:23:58;35.05;;;21.70;;
52438;SDS011;38359;53.150;6.504;2022-11-11T10:34:32;36.47;;;23.75;;
52438;SDS011;38359;53.150;6.504;2022-11-11T10:44:59;40.03;;;23.95;;
52438;SDS011;38359;53.150;6.504;2022-11-11T10:55:31;40.53;;;23.13;;
52438;SDS011;38359;53.150;6.504;2022-11-11T11:06:15;35.70;;;22.77;;
52438;SDS011;38359;53.150;6.504;2022-11-11T11:16:49;37.25;;;20.83;;
52438;SDS011;38359;53.150;6.504;2022-11-11T11:27:24;34.75;;;22.63;;
52438;SDS011;38359;53.150;6.504;2022-11-11T11:37:51;33.13;;;21.40;;
52438;SDS011;38359;53.150;6.504;2022-11-11T12:10:25;35.13;;;19.52;;
52438;SDS011;38359;53.150;6.504;2022-11-11T12:20:58;34.75;;;21.30;;
52438;SDS011;38359;53.150;6.504;2022-11-11T12:31:52;36.17;;;20.98;;
52438;SDS011;38359;53.150;6.504;2022-11-11T12:42:46;29.60;;;19.70;;
52438;SDS011;38359;53.150;6.504;2022-11-11T12:53:32;37.47;;;21.10;;
52438;SDS011;38359;53.150;6.504;2022-11-11T13:15:31;40.20;;;23.60;;
52438;SDS011;38359;53.150;6.504;2022-11-11T13:25:59;41.05;;;22.60;;
52438;SDS011;38359;53.150;6.504;2022-11-11T13:36:31;37.20;;;22.77;;
52438;SDS011;38359;53.150;6.504;2022-11-11T13:47:11;33.42;;;20.95;;
52438;SDS011;38359;53.150;6.504;2022-11-11T13:57:46;34.28;;;21.65;;
52438;SDS011;38359;53.150;6.504;2022-11-11T14:40:27;39.85;;;22.65;;
52438;SDS011;38359;53.150;6.504;2022-11-11T14:50:55;37.72;;;21.90;;
52438;SDS011;38359;53.150;6.504;2022-11-11T15:01:21;31.30;;;19.75;;
52438;SDS011;38359;53.150;6.504;2022-11-11T15:12:04;37.85;;;20.60;;
52438;SDS011;38359;53.150;6.504;2022-11-11T15:45:31;37.03;;;21.70;;
52438;SDS011;38359;53.150;6.504;2022-11-11T15:55:57;34.88;;;21.83;;
52438;SDS011;38359;53.150;6.504;2022-11-11T16:06:25;34.47;;;21.88;;
52438;SDS011;38359;53.150;6.504;2022-11-11T16:16:52;41.10;;;23.00;;
52438;SDS011;38359;53.150;6.504;2022-11-11T16:27:24;40.42;;;24.85;;
52438;SDS011;38359;53.150;6.504;2022-11-11T16:37:55;43.27;;;26.83;;
52438;SDS011;38359;53.150;6.504;2022-11-11T16:58:58;48.78;;;28.25;;
52438;SDS011;38359;53.150;6.504;2022-11-11T17:09:39;44.15;;;26.38;;
52438;SDS011;38359;53.150;6.504;2022-11-11T17:20:16;49.83;;;30.67;;
52438;SDS011;38359;53.150;6.504;2022-11-11T17:30:44;47.22;;;28.45;;
52438;SDS011;38359;53.150;6.504;2022-11-11T17:41:13;47.67;;;27.75;;
52438;SDS011;38359;53.150;6.504;2022-11-11T17:51:39;51.00;;;28.95;;
52438;SDS011;38359;53.150;6.504;2022-11-11T18:02:05;44.30;;;26.30;;
52438;SDS011;38359;53.150;6.504;2022-11-11T18:12:31;44.30;;;25.13;;
52438;SDS011;38359;53.150;6.504;2022-11-11T18:22:57;46.78;;;24.55;;
52438;SDS011;38359;53.150;6.504;2022-11-11T18:33:23;40.45;;;21.52;;
52438;SDS011;38359;53.150;6.504;2022-11-11T18:43:49;34.28;;;20.52;;
52438;SDS011;38359;53.150;6.504;2022-11-11T18:54:16;35.72;;;20.45;;
52438;SDS011;38359;53.150;6.504;2022-11-11T19:04:41;38.30;;;20.85;;
52438;SDS011;38359;53.150;6.504;2022-11-11T19:15:07;46.20;;;23.98;;
52438;SDS011;38359;53.150;6.504;2022-11-11T19:25:35;31.63;;;19.95;;
52438;SDS011;38359;53.150;6.504;2022-11-11T19:36:03;43.40;;;21.70;;
52438;SDS011;38359;53.150;6.504;2022-11-11T19:46:32;44.55;;;22.90;;
52438;SDS011;38359;53.150;6.504;2022-11-11T19:57:00;39.60;;;22.05;;
52438;SDS011;38359;53.150;6.504;2022-11-11T20:07:26;33.42;;;20.17;;
52438;SDS011;38359;53.150;6.504;2022-11-11T20:17:52;40.65;;;21.15;;
52438;SDS011;38359;53.150;6.504;2022-11-11T20:28:18;37.00;;;21.23;;
52438;SDS011;38359;53.150;6.504;2022-11-11T20:38:44;43.03;;;20.85;;
52438;SDS011;38359;53.150;6.504;2022-11-11T20:49:10;29.38;;;16.67;;
52438;SDS011;38359;53.150;6.504;2022-11-11T20:59:36;29.60;;;16.27;;
52438;SDS011;38359;53.150;6.504;2022-11-11T21:10:02;30.33;;;15.43;;
52438;SDS011;38359;53.150;6.504;2022-11-11T21:20:28;24.90;;;14.63;;
52438;SDS011;38359;53.150;6.504;2022-11-11T21:31:01;24.83;;;14.45;;
52438;SDS011;38359;53.150;6.504;2022-11-11T21:41:31;30.27;;;16.20;;
52438;SDS011;38359;53.150;6.504;2022-11-11T21:52:00;21.58;;;12.43;;
52438;SDS011;38359;53.150;6.504;2022-11-11T22:02:26;23.85;;;13.00;;
52438;SDS011;38359;53.150;6.504;2022-11-11T22:12:52;26.27;;;13.70;;
52438;SDS011;38359;53.150;6.504;2022-11-11T22:23:18;21.38;;;12.70;;
52438;SDS011;38359;53.150;6.504;2022-11-11T22:33:44;21.70;;;12.63;;
52438;SDS011;38359;53.150;6.504;2022-11-11T22:44:11;27.20;;;12.75;;
52438;SDS011;38359;53.150;6.504;2022-11-11T22:54:36;21.67;;;12.35;;
52438;SDS011;38359;53.150;6.504;2022-11-11T23:05:02;24.90;;;12.50;;
52438;SDS011;38359;53.150;6.504;2022-11-11T23:15:28;22.15;;;11.38;;
52438;SDS011;38359;53.150;6.504;2022-11-11T23:25:59;24.02;;;14.68;;
52438;SDS011;38359;53.150;6.504;2022-11-11T23:36:41;23.55;;;12.30;;
52438;SDS011;38359;53.150;6.504;2022-11-11T23:47:07;19.00;;;12.63;;
52438;SDS011;38359;53.150;6.504;2022-11-11T23:57:33;30.50;;;13.45;;
